Time;durP1;ratioP1;P1;durP2;ratioP2;P2;SDS_P1;SDS_P2;PMS_P1;PMS_P2;Temp;Humidity;BMP_temperature;BMP_pressure;BME280_temperature;BME280_humidity;BME280_pressure;Samples;Min_cycle;Max_cycle;Signal;HPM_P1;HPM_P2
2022/09/04 00:00:27;;;;;;;;;;;16.60;97.10;;;;;;5035326;28;19929;-92
2022/09/04 00:03:02;;;;;;;;;;;16.50;97.30;;;;;;5035290;28;19984;-90
2022/09/04 00:05:27;;;;;;;;;;;16.50;97.30;;;;;;5034554;28;19971;-91
2022/09/04 00:08:16;;;;;;;;;;;17.40;97.60;;;;;;5034289;28;19925;-92
2022/09/04 00:10:49;;;;;;;;;;;16.40;97.50;;;;;;5023690;28;19925;-91
2022/09/04 00:13:27;;;;;;;;;;;16.30;97.50;;;;;;5034838;28;19929;-91
2022/09/04 00:15:56;;;;;;;;;;;16.30;97.50;;;;;;5018040;28;19951;-92
2022/09/04 00:18:24;;;;;;;;;;;16.30;97.60;;;;;;5018173;28;19929;-90
2022/09/04 00:20:55;;;;;;;;;;;16.30;97.60;;;;;;5001619;28;19933;-91
2022/09/04 00:23:24;;;;;;;;;;;16.20;97.70;;;;;;5034680;28;19932;-91
2022/09/04 00:25:57;;;;;;;;;;;16.20;97.70;;;;;;5017760;28;19932;-90
2022/09/04 00:28:41;;;;;;;;;;;16.10;97.80;;;;;;5036958;28;19925;-90
2022/09/04 00:31:37;;;;;;;;;;;16.20;97.90;;;;;;5019026;28;19929;-89
2022/09/04 00:34:20;;;;;;;;;;;16.10;98.00;;;;;;5032735;28;19925;-90
2022/09/04 00:36:47;;;;;;;;;;;15.90;98.30;;;;;;5027603;28;20022;-91
2022/09/04 00:39:33;;;;;;;;;;;15.90;98.40;;;;;;5026443;28;19925;-91
2022/09/04 00:42:01;;;;;;;;;;;15.80;98.50;;;;;;5035162;28;19929;-92
2022/09/04 00:44:47;;;;;;;;;;;15.80;98.40;;;;;;5019309;28;20176;-91
2022/09/04 00:47:19;;;;;;;;;;;15.80;98.60;;;;;;5019688;28;19988;-91
2022/09/04 00:50:06;;;;;;;;;;;15.80;98.50;;;;;;5035826;28;19929;-92
2022/09/04 00:52:36;;;;;;;;;;;15.80;98.60;;;;;;5017686;28;19929;-91
2022/09/04 00:55:21;;;;;;;;;;;15.90;98.60;;;;;;5034424;28;20151;-91
2022/09/04 00:58:01;;;;;;;;;;;15.80;98.60;;;;;;5036040;28;20293;-91
2022/09/04 01:00:29;;;;;;;;;;;15.80;98.70;;;;;;5033373;28;20023;-92
2022/09/04 01:03:00;;;;;;;;;;;15.80;98.80;;;;;;5034886;28;19925;-90
2022/09/04 01:05:26;;;;;;;;;;;15.70;98.80;;;;;;5018047;28;19952;-90
2022/09/04 01:08:11;;;;;;;;;;;15.70;99.30;;;;;;5018525;28;19926;-90
2022/09/04 01:10:43;;;;;;;;;;;15.70;98.90;;;;;;5043663;28;19929;-91
2022/09/04 01:13:15;;;;;;;;;;;15.70;99.00;;;;;;5035283;28;19929;-91
2022/09/04 01:15:41;;;;;;;;;;;15.70;99.00;;;;;;5021335;28;20023;-91
2022/09/04 01:18:09;;;;;;;;;;;15.70;99.10;;;;;;5043344;28;19972;-89
2022/09/04 01:20:49;;;;;;;;;;;15.70;99.00;;;;;;5035173;28;20022;-90
2022/09/04 01:23:33;;;;;;;;;;;15.60;99.10;;;;;;5034185;28;19932;-91
2022/09/04 01:26:05;;;;;;;;;;;15.60;99.20;;;;;;5016809;28;19936;-90
2022/09/04 01:28:30;;;;;;;;;;;15.50;99.20;;;;;;5034058;28;19925;-91
2022/09/04 01:31:00;;;;;;;;;;;15.50;99.60;;;;;;5034134;28;20012;-90
2022/09/04 01:33:30;;;;;;;;;;;15.50;99.50;;;;;;5018441;28;20023;-89
2022/09/04 01:36:02;;;;;;;;;;;15.50;99.40;;;;;;5016443;28;19988;-90
2022/09/04 01:38:32;;;;;;;;;;;15.60;99.40;;;;;;5039976;28;19929;-90
2022/09/04 01:41:06;;;;;;;;;;;15.60;99.40;;;;;;5020716;28;19976;-90
2022/09/04 01:43:33;;;;;;;;;;;15.50;99.50;;;;;;5004342;28;19932;-89
2022/09/04 01:46:17;;;;;;;;;;;15.50;99.60;;;;;;5017923;28;20158;-90
2022/09/04 01:48:46;;;;;;;;;;;15.40;99.60;;;;;;5032753;28;19936;-92
2022/09/04 01:51:31;;;;;;;;;;;15.50;99.70;;;;;;5016314;28;19932;-91
2022/09/04 01:54:15;;;;;;;;;;;15.50;99.60;;;;;;5015716;28;19925;-91
2022/09/04 01:56:44;;;;;;;;;;;15.50;99.70;;;;;;5032551;28;20012;-91
2022/09/04 01:59:14;;;;;;;;;;;15.40;99.80;;;;;;4999409;28;19929;-90
2022/09/04 02:01:48;;;;;;;;;;;15.30;99.90;;;;;;5032390;28;19990;-90
2022/09/04 02:04:20;;;;;;;;;;;15.30;99.90;;;;;;5015655;28;19929;-90
2022/09/04 02:06:50;;;;;;;;;;;15.30;99.90;;;;;;5033157;28;19925;-91
2022/09/04 02:09:22;;;;;;;;;;;15.30;99.90;;;;;;5032637;28;20421;-91
2022/09/04 02:11:50;;;;;;;;;;;15.30;99.90;;;;;;5032597;28;19926;-91
2022/09/04 02:14:18;;;;;;;;;;;15.20;99.90;;;;;;5016185;28;19929;-90
2022/09/04 02:16:44;;;;;;;;;;;15.20;99.90;;;;;;5032254;28;20369;-90
2022/09/04 02:19:28;;;;;;;;;;;15.20;99.90;;;;;;5032648;28;19947;-91
2022/09/04 02:22:00;;;;;;;;;;;15.10;99.90;;;;;;5031936;28;19928;-90
2022/09/04 02:24:34;;;;;;;;;;;15.00;99.90;;;;;;5032054;28;19929;-90
2022/09/04 02:27:15;;;;;;;;;;;15.00;99.90;;;;;;5015437;28;19933;-89
2022/09/04 02:29:43;;;;;;;;;;;14.90;99.90;;;;;;5033048;28;19932;-90
2022/09/04 02:32:17;;;;;;;;;;;14.90;99.90;;;;;;5014974;28;19929;-90
2022/09/04 02:35:09;;;;;;;;;;;14.80;99.90;;;;;;5032034;28;20319;-89
2022/09/04 02:37:53;;;;;;;;;;;14.60;99.90;;;;;;4985411;28;19925;-90
2022/09/04 02:40:36;;;;;;;;;;;14.50;99.90;;;;;;5035394;28;19929;-90
2022/09/04 02:43:02;;;;;;;;;;;14.30;99.90;;;;;;5038056;28;19929;-90
2022/09/04 02:45:27;;;;;;;;;;;14.10;99.90;;;;;;5032355;28;20039;-90
2022/09/04 02:48:05;;;;;;;;;;;14.00;99.90;;;;;;5016115;28;19929;-89
2022/09/04 02:50:40;;;;;;;;;;;13.90;99.90;;;;;;5015025;28;20663;-89
2022/09/04 02:53:15;;;;;;;;;;;13.80;99.90;;;;;;5015124;28;19932;-90
2022/09/04 02:55:59;;;;;;;;;;;13.70;99.90;;;;;;5030808;28;19928;-89
2022/09/04 02:58:25;;;;;;;;;;;13.70;99.90;;;;;;5017349;28;19925;-91
2022/09/04 03:01:11;;;;;;;;;;;13.60;99.90;;;;;;5032164;28;19952;-90
2022/09/04 03:03:39;;;;;;;;;;;13.60;99.90;;;;;;5014802;28;19925;-90
2022/09/04 03:06:13;;;;;;;;;;;13.50;99.90;;;;;;5030893;28;19925;-90
2022/09/04 03:08:42;;;;;;;;;;;13.50;99.90;;;;;;5015606;28;19932;-90
2022/09/04 03:11:22;;;;;;;;;;;13.40;99.90;;;;;;5014272;28;20407;-89
2022/09/04 03:13:54;;;;;;;;;;;13.40;99.90;;;;;;5030913;28;19929;-90
2022/09/04 03:16:28;;;;;;;;;;;13.40;99.90;;;;;;5030503;28;20370;-90
2022/09/04 03:19:05;;;;;;;;;;;13.40;99.90;;;;;;5030746;28;19925;-89
2022/09/04 03:21:40;;;;;;;;;;;13.30;99.90;;;;;;5031363;28;19929;-89
2022/09/04 03:24:21;;;;;;;;;;;13.20;99.90;;;;;;5034595;28;20016;-89
2022/09/04 03:26:53;;;;;;;;;;;13.20;99.90;;;;;;5034774;28;19995;-90
2022/09/04 03:29:38;;;;;;;;;;;13.20;99.90;;;;;;5017865;28;19976;-90
2022/09/04 03:32:10;;;;;;;;;;;13.20;99.90;;;;;;5034354;28;19929;-89
2022/09/04 03:34:51;;;;;;;;;;;13.10;99.90;;;;;;5035895;28;20003;-89
2022/09/04 03:37:19;;;;;;;;;;;13.10;99.90;;;;;;5035074;28;19998;-90
2022/09/04 03:39:50;;;;;;;;;;;13.10;99.90;;;;;;5034652;28;19925;-91
2022/09/04 03:42:34;;;;;;;;;;;13.00;99.90;;;;;;5019095;28;19936;-89
2022/09/04 03:45:07;;;;;;;;;;;13.00;99.90;;;;;;5005329;28;19925;-89
2022/09/04 03:47:48;;;;;;;;;;;13.00;99.90;;;;;;5018804;28;19935;-89
2022/09/04 03:50:14;;;;;;;;;;;13.00;99.90;;;;;;5034615;28;19991;-90
2022/09/04 03:52:54;;;;;;;;;;;13.00;99.90;;;;;;5035115;28;19933;-91
2022/09/04 03:55:39;;;;;;;;;;;13.00;99.90;;;;;;5018156;28;20397;-89
2022/09/04 03:58:14;;;;;;;;;;;13.00;99.90;;;;;;5034047;28;19925;-89
2022/09/04 04:00:45;;;;;;;;;;;13.00;99.90;;;;;;5035386;28;19933;-88
2022/09/04 04:03:33;;;;;;;;;;;13.00;99.90;;;;;;5001266;28;20074;-90
2022/09/04 04:06:18;;;;;;;;;;;13.00;99.90;;;;;;5034191;28;19936;-88
2022/09/04 04:08:56;;;;;;;;;;;13.00;99.90;;;;;;5034561;28;20024;-90
2022/09/04 04:11:42;;;;;;;;;;;13.00;99.90;;;;;;5017439;28;19925;-91
2022/09/04 04:14:14;;;;;;;;;;;13.00;99.90;;;;;;5040874;28;19932;-89
2022/09/04 04:16:48;;;;;;;;;;;13.00;99.90;;;;;;5037711;28;19932;-90
2022/09/04 04:19:13;;;;;;;;;;;13.00;99.90;;;;;;5035706;28;19972;-90
2022/09/04 04:21:57;;;;;;;;;;;12.90;99.90;;;;;;5041876;28;20247;-89
2022/09/04 04:24:29;;;;;;;;;;;12.90;99.90;;;;;;5036909;28;19932;-87
2022/09/04 04:26:54;;;;;;;;;;;12.80;99.90;;;;;;5041970;28;19929;-89
2022/09/04 04:29:21;;;;;;;;;;;13.20;99.90;;;;;;5034650;28;19936;-89
2022/09/04 04:32:12;;;;;;;;;;;12.80;99.90;;;;;;5035846;28;19978;-89
2022/09/04 04:34:53;;;;;;;;;;;12.80;99.90;;;;;;5034780;28;19929;-90
2022/09/04 04:37:50;;;;;;;;;;;12.70;99.90;;;;;;5034706;28;19936;-89
2022/09/04 04:40:22;;;;;;;;;;;12.70;99.90;;;;;;5011228;28;20407;-90
2022/09/04 04:42:53;;;;;;;;;;;11.10;99.90;;;;;;5018399;28;19925;-87
2022/09/04 04:48:25;;;;;;;;;;;12.60;99.90;;;;;;5061266;28;20015;-92
2022/09/04 04:51:10;;;;;;;;;;;12.20;99.90;;;;;;5038624;28;19936;-92
2022/09/04 04:53:38;;;;;;;;;;;12.70;99.90;;;;;;5053994;28;19929;-92
2022/09/04 04:56:30;;;;;;;;;;;12.70;99.90;;;;;;5038023;28;19925;-91
2022/09/04 04:58:59;;;;;;;;;;;12.60;99.90;;;;;;5019440;28;19925;-89
2022/09/04 05:02:06;;;;;;;;;;;12.60;99.90;;;;;;5053313;28;19925;-89
2022/09/04 05:04:44;;;;;;;;;;;12.40;99.90;;;;;;4956846;28;20277;-89
2022/09/04 05:07:10;;;;;;;;;;;12.40;99.90;;;;;;4959542;28;20425;-92
2022/09/04 05:09:39;;;;;;;;;;;12.50;99.90;;;;;;5012527;28;20015;-91
2022/09/04 05:12:20;;;;;;;;;;;12.60;99.90;;;;;;5036399;28;19936;-87
2022/09/04 05:14:46;;;;;;;;;;;12.50;99.90;;;;;;5036332;28;19924;-88
2022/09/04 05:17:17;;;;;;;;;;;12.60;99.90;;;;;;5052392;28;20018;-93
2022/09/04 05:20:05;;;;;;;;;;;12.60;99.90;;;;;;5047303;28;19936;-88
2022/09/04 05:22:38;;;;;;;;;;;12.70;99.90;;;;;;5048689;28;20029;-91
2022/09/04 05:25:23;;;;;;;;;;;12.70;99.90;;;;;;5020951;28;20384;-96
2022/09/04 05:27:56;;;;;;;;;;;12.70;99.90;;;;;;5056394;28;19932;-93
2022/09/04 05:30:44;;;;;;;;;;;11.70;99.90;;;;;;5037922;28;20063;-92
2022/09/04 05:33:16;;;;;;;;;;;12.70;99.90;;;;;;5053747;28;19932;-91
2022/09/04 05:35:47;;;;;;;;;;;12.80;99.90;;;;;;5037172;28;19936;-94
2022/09/04 05:38:15;;;;;;;;;;;14.70;99.90;;;;;;5039989;28;19925;-92
2022/09/04 05:40:49;;;;;;;;;;;13.50;99.90;;;;;;5037481;28;20424;-94
2022/09/04 05:43:27;;;;;;;;;;;14.10;99.90;;;;;;5037994;28;19924;-93
2022/09/04 05:46:00;;;;;;;;;;;14.90;99.90;;;;;;5054544;28;19924;-93
2022/09/04 05:48:32;;;;;;;;;;;15.70;99.90;;;;;;5051272;28;19932;-93
2022/09/04 05:51:05;;;;;;;;;;;16.20;99.90;;;;;;5055572;28;20286;-93
2022/09/04 05:53:45;;;;;;;;;;;16.80;99.90;;;;;;5054594;28;20373;-93
2022/09/04 05:56:14;;;;;;;;;;;17.20;99.90;;;;;;5048408;28;20007;-93
2022/09/04 05:58:43;;;;;;;;;;;17.50;99.90;;;;;;5020624;28;19925;-93
2022/09/04 06:01:24;;;;;;;;;;;18.60;99.90;;;;;;5035531;28;19929;-92
2022/09/04 06:04:08;;;;;;;;;;;18.20;99.90;;;;;;5036899;28;19944;-93
2022/09/04 06:06:40;;;;;;;;;;;18.60;99.50;;;;;;5034693;28;19925;-94
2022/09/04 06:09:10;;;;;;;;;;;19.10;99.10;;;;;;5035887;28;19925;-94
2022/09/04 06:11:38;;;;;;;;;;;19.10;98.40;;;;;;5034415;28;19932;-93
2022/09/04 06:14:17;;;;;;;;;;;18.90;98.40;;;;;;5017483;28;19925;-94
2022/09/04 06:16:42;;;;;;;;;;;19.70;98.00;;;;;;5019725;28;19925;-94
2022/09/04 06:19:43;;;;;;;;;;;20.00;97.70;;;;;;5042620;28;20430;-93
2022/09/04 06:22:12;;;;;;;;;;;20.20;97.40;;;;;;4938943;29;20021;-92
2022/09/04 06:24:56;;;;;;;;;;;20.30;97.30;;;;;;5015042;28;19995;-93
2022/09/04 06:27:28;;;;;;;;;;;20.20;97.70;;;;;;5034045;28;20030;-87
2022/09/04 06:30:02;;;;;;;;;;;19.50;97.20;;;;;;5034578;28;20023;-92
2022/09/04 06:32:28;;;;;;;;;;;21.00;97.20;;;;;;5042107;28;19991;-93
2022/09/04 06:35:23;;;;;;;;;;;20.50;96.70;;;;;;5034132;28;20376;-91
2022/09/04 06:37:54;;;;;;;;;;;20.30;97.10;;;;;;4995593;28;20385;-92
2022/09/04 06:40:25;;;;;;;;;;;20.40;97.00;;;;;;5016702;28;20336;-91
2022/09/04 06:42:54;;;;;;;;;;;20.30;97.10;;;;;;5032769;28;19971;-91
2022/09/04 06:45:35;;;;;;;;;;;20.60;96.90;;;;;;5032966;28;19926;-92
2022/09/04 06:48:04;;;;;;;;;;;20.40;96.60;;;;;;5034420;28;19931;-92
2022/09/04 06:50:33;;;;;;;;;;;20.60;96.70;;;;;;5039720;28;19963;-91
2022/09/04 06:53:12;;;;;;;;;;;20.60;96.50;;;;;;5040039;28;19979;-92
2022/09/04 06:56:01;;;;;;;;;;;21.00;96.20;;;;;;5032084;28;19925;-92
2022/09/04 06:58:45;;;;;;;;;;;21.30;95.50;;;;;;5022488;28;19999;-91
2022/09/04 07:01:11;;;;;;;;;;;21.20;95.60;;;;;;5050079;28;19959;-92
2022/09/04 07:03:39;;;;;;;;;;;21.60;95.40;;;;;;5049214;28;19931;-91
2022/09/04 07:06:07;;;;;;;;;;;21.80;94.80;;;;;;5024170;28;20012;-92
2022/09/04 07:08:37;;;;;;;;;;;21.80;95.00;;;;;;5047921;28;20397;-93
2022/09/04 07:11:03;;;;;;;;;;;21.70;94.30;;;;;;5037438;28;19948;-93
2022/09/04 07:13:35;;;;;;;;;;;22.20;94.70;;;;;;5052823;28;19929;-92
2022/09/04 07:16:04;;;;;;;;;;;22.70;94.30;;;;;;5053156;28;19924;-92
2022/09/04 07:18:37;;;;;;;;;;;22.90;94.00;;;;;;5055543;28;19932;-93
2022/09/04 07:21:18;;;;;;;;;;;23.00;93.90;;;;;;5040308;28;20403;-89
2022/09/04 07:23:49;;;;;;;;;;;22.60;94.30;;;;;;5054429;28;19925;-92
2022/09/04 07:26:18;;;;;;;;;;;22.80;94.60;;;;;;5043634;28;19924;-92
2022/09/04 07:28:58;;;;;;;;;;;23.50;93.80;;;;;;5058666;28;19932;-91
2022/09/04 07:31:36;;;;;;;;;;;23.20;93.90;;;;;;5054610;28;20401;-91
2022/09/04 07:34:21;;;;;;;;;;;23.30;93.60;;;;;;5050772;28;19931;-91
2022/09/04 07:36:53;;;;;;;;;;;22.90;94.10;;;;;;5033995;28;19925;-92
2022/09/04 07:39:39;;;;;;;;;;;22.70;93.90;;;;;;5033771;28;20010;-92
2022/09/04 07:42:08;;;;;;;;;;;23.20;94.10;;;;;;5046948;28;19985;-90
2022/09/04 07:45:00;;;;;;;;;;;23.80;93.40;;;;;;5018444;28;20373;-92
2022/09/04 07:47:26;;;;;;;;;;;24.00;93.50;;;;;;4995281;28;20058;-91
2022/09/04 07:49:56;;;;;;;;;;;23.70;93.80;;;;;;5043558;28;20070;-92
2022/09/04 07:52:30;;;;;;;;;;;23.40;93.70;;;;;;5026615;28;19987;-92
2022/09/04 07:55:05;;;;;;;;;;;23.60;94.00;;;;;;5035001;28;19932;-90
2022/09/04 07:57:37;;;;;;;;;;;23.90;94.10;;;;;;5033500;28;19925;-87
2022/09/04 08:00:13;;;;;;;;;;;23.80;93.80;;;;;;5016641;28;20320;-91
2022/09/04 08:02:57;;;;;;;;;;;23.90;93.50;;;;;;5035738;28;20398;-90
2022/09/04 08:05:27;;;;;;;;;;;23.90;93.70;;;;;;5060800;28;19925;-89
2022/09/04 08:08:02;;;;;;;;;;;24.60;93.50;;;;;;5070801;28;19929;-91
2022/09/04 08:10:30;;;;;;;;;;;25.00;93.30;;;;;;5057195;28;19932;-90
2022/09/04 08:12:55;;;;;;;;;;;25.40;93.00;;;;;;5069538;28;19924;-91
2022/09/04 08:15:34;;;;;;;;;;;25.30;93.50;;;;;;5059246;28;20036;-89
2022/09/04 08:18:03;;;;;;;;;;;26.00;93.20;;;;;;5048761;28;19929;-91
2022/09/04 08:20:37;;;;;;;;;;;25.60;92.40;;;;;;5008088;28;19981;-93
2022/09/04 08:23:16;;;;;;;;;;;25.80;92.40;;;;;;5039542;28;20023;-91
2022/09/04 08:25:50;;;;;;;;;;;25.70;92.60;;;;;;5035607;28;19925;-92
2022/09/04 08:28:23;;;;;;;;;;;25.80;92.50;;;;;;5019909;28;19948;-92
2022/09/04 08:30:52;;;;;;;;;;;26.00;92.20;;;;;;5040658;28;19932;-92
2022/09/04 08:33:30;;;;;;;;;;;26.10;92.30;;;;;;5052521;28;19924;-91
2022/09/04 08:35:56;;;;;;;;;;;25.50;92.40;;;;;;5039165;28;19929;-91
2022/09/04 08:38:40;;;;;;;;;;;25.90;92.40;;;;;;5055649;28;19931;-91
2022/09/04 08:41:05;;;;;;;;;;;26.20;92.50;;;;;;5055487;28;20131;-91
2022/09/04 08:43:46;;;;;;;;;;;26.60;92.40;;;;;;5055507;28;20453;-92
2022/09/04 08:46:28;;;;;;;;;;;26.90;91.90;;;;;;5056658;28;19932;-91
2022/09/04 08:49:09;;;;;;;;;;;26.90;92.20;;;;;;5038546;28;19929;-90
2022/09/04 08:51:34;;;;;;;;;;;27.30;92.20;;;;;;5034560;28;19924;-92
2022/09/04 08:54:13;;;;;;;;;;;27.60;91.70;;;;;;5038684;28;20004;-89
2022/09/04 08:56:54;;;;;;;;;;;27.90;91.40;;;;;;5039618;28;19928;-89
2022/09/04 08:59:20;;;;;;;;;;;27.30;91.80;;;;;;5055766;28;19924;-92
2022/09/04 09:01:55;;;;;;;;;;;28.20;91.40;;;;;;5055008;28;19975;-92
2022/09/04 09:04:23;;;;;;;;;;;28.40;91.20;;;;;;5054523;28;19925;-91
2022/09/04 09:07:00;;;;;;;;;;;27.60;91.10;;;;;;5039423;28;19998;-90
2022/09/04 09:09:44;;;;;;;;;;;27.60;91.50;;;;;;5055445;28;20025;-92
2022/09/04 09:12:29;;;;;;;;;;;28.00;91.10;;;;;;5054924;28;19929;-91
2022/09/04 09:14:57;;;;;;;;;;;27.90;91.40;;;;;;5054381;28;19925;-90
2022/09/04 09:17:39;;;;;;;;;;;28.00;91.50;;;;;;5055887;28;19925;-92
2022/09/04 09:20:14;;;;;;;;;;;27.90;91.40;;;;;;5023812;28;20395;-91
2022/09/04 09:23:08;;;;;;;;;;;28.60;91.30;;;;;;5057031;28;20027;-92
2022/09/04 09:25:53;;;;;;;;;;;28.20;91.30;;;;;;5056436;28;19932;-91
2022/09/04 09:28:38;;;;;;;;;;;27.60;91.20;;;;;;5044934;28;19928;-93
2022/09/04 09:31:20;;;;;;;;;;;27.90;91.20;;;;;;5055920;28;19924;-92
2022/09/04 09:33:52;;;;;;;;;;;27.30;91.50;;;;;;5038037;28;19925;-91
2022/09/04 09:36:36;;;;;;;;;;;27.30;91.60;;;;;;5054834;28;19925;-91
2022/09/04 09:39:14;;;;;;;;;;;27.10;91.60;;;;;;5054600;28;20376;-91
2022/09/04 09:41:45;;;;;;;;;;;26.90;91.80;;;;;;5044459;28;20420;-91
2022/09/04 09:44:29;;;;;;;;;;;27.00;91.80;;;;;;5034836;28;20392;-92
2022/09/04 09:47:03;;;;;;;;;;;26.90;91.90;;;;;;5034126;28;19932;-91
2022/09/04 09:49:37;;;;;;;;;;;27.00;92.00;;;;;;5035528;28;19929;-90
2022/09/04 09:52:15;;;;;;;;;;;26.50;91.90;;;;;;5034311;28;19925;-90
2022/09/04 09:54:40;;;;;;;;;;;26.30;92.30;;;;;;5034101;28;19929;-94
2022/09/04 09:57:20;;;;;;;;;;;26.50;91.90;;;;;;5044858;28;20395;-92
2022/09/04 10:00:20;;;;;;;;;;;26.70;92.30;;;;;;5035008;28;20379;-89
2022/09/04 10:03:01;;;;;;;;;;;26.80;91.70;;;;;;4991521;28;19925;-93
2022/09/04 10:05:38;;;;;;;;;;;26.70;92.00;;;;;;5034179;28;19925;-94
2022/09/04 10:08:08;;;;;;;;;;;27.00;91.80;;;;;;5034752;28;20293;-92
2022/09/04 10:10:52;;;;;;;;;;;27.00;91.70;;;;;;5045604;28;19947;-91
2022/09/04 10:13:18;;;;;;;;;;;26.60;91.60;;;;;;5034122;28;20444;-94
2022/09/04 10:15:45;;;;;;;;;;;26.50;91.70;;;;;;5034284;28;19976;-93
2022/09/04 10:18:21;;;;;;;;;;;26.50;91.60;;;;;;5034694;28;19956;-92
2022/09/04 10:21:10;;;;;;;;;;;26.50;91.80;;;;;;5017778;28;19975;-92
2022/09/04 10:23:36;;;;;;;;;;;27.20;91.60;;;;;;5036469;28;19948;-93
2022/09/04 10:26:28;;;;;;;;;;;27.70;91.70;;;;;;5034766;28;19925;-92
2022/09/04 10:29:09;;;;;;;;;;;27.60;91.30;;;;;;4982878;28;19932;-93
2022/09/04 10:31:55;;;;;;;;;;;27.80;91.20;;;;;;5021087;28;20396;-92
2022/09/04 10:34:22;;;;;;;;;;;28.00;90.80;;;;;;4986189;28;19925;-92
2022/09/04 10:36:54;;;;;;;;;;;28.10;90.70;;;;;;5035285;28;19932;-92
2022/09/04 10:42:29;;;;;;;;;;;27.30;91.20;;;;;;5065441;28;19931;-90
2022/09/04 10:45:04;;;;;;;;;;;27.60;91.10;;;;;;5061366;28;20547;-93
2022/09/04 10:47:43;;;;;;;;;;;26.90;91.30;;;;;;5038094;28;20272;-92
2022/09/04 10:50:10;;;;;;;;;;;27.40;91.40;;;;;;5037453;28;20389;-92
2022/09/04 10:52:49;;;;;;;;;;;26.90;91.20;;;;;;5049447;28;20059;-93
2022/09/04 10:55:35;;;;;;;;;;;27.00;91.30;;;;;;5048642;28;19976;-91
2022/09/04 10:58:24;;;;;;;;;;;27.30;91.10;;;;;;5038572;28;19948;-91
2022/09/04 11:01:04;;;;;;;;;;;27.30;91.50;;;;;;4975153;28;19936;-92
2022/09/04 11:03:49;;;;;;;;;;;27.60;90.80;;;;;;5035110;28;19929;-90
2022/09/04 11:06:15;;;;;;;;;;;27.40;91.20;;;;;;5034957;28;19925;-93
2022/09/04 11:08:46;;;;;;;;;;;27.70;90.90;;;;;;5036981;28;19989;-93
2022/09/04 11:11:18;;;;;;;;;;;27.50;91.00;;;;;;5036736;28;19932;-91
2022/09/04 11:13:43;;;;;;;;;;;27.20;91.20;;;;;;5019588;28;19976;-91
2022/09/04 11:16:41;;;;;;;;;;;26.60;91.20;;;;;;5037191;28;20016;-91
2022/09/04 11:19:27;;;;;;;;;;;26.60;91.80;;;;;;4997842;28;19925;-93
2022/09/04 11:22:13;;;;;;;;;;;27.00;91.70;;;;;;5054346;28;19975;-92
2022/09/04 11:24:58;;;;;;;;;;;26.80;91.30;;;;;;5046309;28;19925;-90
2022/09/04 11:27:44;;;;;;;;;;;26.90;91.40;;;;;;5042915;28;19932;-92
2022/09/04 11:30:10;;;;;;;;;;;26.60;91.70;;;;;;5025510;28;19929;-93
2022/09/04 11:32:39;;;;;;;;;;;26.90;91.40;;;;;;5039323;28;19925;-92
2022/09/04 11:35:13;;;;;;;;;;;26.70;91.70;;;;;;5035765;28;19968;-90
2022/09/04 11:37:45;;;;;;;;;;;26.60;92.00;;;;;;5034106;28;20388;-92
2022/09/04 11:40:21;;;;;;;;;;;26.40;91.80;;;;;;5037228;28;19925;-92
2022/09/04 11:42:56;;;;;;;;;;;26.70;91.80;;;;;;5048259;28;19925;-93
2022/09/04 11:45:21;;;;;;;;;;;26.80;91.90;;;;;;5043566;28;20026;-92
2022/09/04 11:47:53;;;;;;;;;;;26.70;92.00;;;;;;5040287;28;19925;-92
2022/09/04 11:50:21;;;;;;;;;;;26.50;91.90;;;;;;5040536;28;20019;-91
2022/09/04 11:53:10;;;;;;;;;;;26.80;92.30;;;;;;5045568;28;19925;-92
2022/09/04 11:55:43;;;;;;;;;;;26.50;92.00;;;;;;5044094;28;19944;-93
2022/09/04 11:58:08;;;;;;;;;;;26.60;91.90;;;;;;5036080;28;19975;-93
2022/09/04 12:00:39;;;;;;;;;;;26.80;92.20;;;;;;5049991;28;19929;-90
2022/09/04 12:03:25;;;;;;;;;;;26.60;92.30;;;;;;5025430;28;19925;-92
2022/09/04 12:06:06;;;;;;;;;;;26.90;92.30;;;;;;5022261;28;19993;-91
2022/09/04 12:08:50;;;;;;;;;;;27.20;92.30;;;;;;5036971;28;19971;-91
2022/09/04 12:11:30;;;;;;;;;;;27.10;92.30;;;;;;5043789;28;19968;-91
2022/09/04 12:14:03;;;;;;;;;;;26.70;92.40;;;;;;5036307;28;20301;-93
2022/09/04 12:16:33;;;;;;;;;;;27.00;92.40;;;;;;5037118;28;20078;-93
2022/09/04 12:19:02;;;;;;;;;;;27.20;92.20;;;;;;5036214;28;19929;-93
2022/09/04 12:21:34;;;;;;;;;;;27.10;92.70;;;;;;5019823;28;19972;-92
2022/09/04 12:24:05;;;;;;;;;;;27.00;92.00;;;;;;5035725;28;19952;-91
2022/09/04 12:26:34;;;;;;;;;;;26.90;92.60;;;;;;5035852;28;20366;-92
2022/09/04 12:29:05;;;;;;;;;;;27.20;92.60;;;;;;5038575;28;19929;-91
2022/09/04 12:31:38;;;;;;;;;;;27.20;92.50;;;;;;5039754;28;19925;-90
2022/09/04 12:34:04;;;;;;;;;;;27.10;92.40;;;;;;5030354;28;19931;-91
2022/09/04 12:36:48;;;;;;;;;;;27.10;92.50;;;;;;5055753;28;19925;-90
2022/09/04 12:39:32;;;;;;;;;;;27.20;92.60;;;;;;5056531;28;19931;-89
2022/09/04 12:42:10;;;;;;;;;;;27.20;92.50;;;;;;5056003;28;20289;-91
2022/09/04 12:44:45;;;;;;;;;;;27.40;92.40;;;;;;5054780;28;19932;-92
2022/09/04 12:47:44;;;;;;;;;;;27.10;92.40;;;;;;5033265;28;19978;-92
2022/09/04 12:50:10;;;;;;;;;;;27.10;92.40;;;;;;5001643;28;19978;-92
2022/09/04 12:52:44;;;;;;;;;;;27.10;92.90;;;;;;5056941;28;19924;-94
2022/09/04 12:55:10;;;;;;;;;;;27.40;92.40;;;;;;5053426;28;19964;-94
2022/09/04 12:57:36;;;;;;;;;;;27.30;92.30;;;;;;5055677;28;19924;-93
2022/09/04 13:00:06;;;;;;;;;;;27.10;92.40;;;;;;5058959;28;20424;-93
2022/09/04 13:02:35;;;;;;;;;;;27.20;92.40;;;;;;5054770;28;20365;-91
2022/09/04 13:05:13;;;;;;;;;;;27.50;92.10;;;;;;5048307;28;19925;-92
2022/09/04 13:07:51;;;;;;;;;;;27.30;92.40;;;;;;5039523;28;19929;-91
2022/09/04 13:10:32;;;;;;;;;;;27.20;92.80;;;;;;5055177;28;19931;-94
2022/09/04 13:13:04;;;;;;;;;;;27.30;92.50;;;;;;5038597;28;20150;-92
2022/09/04 13:15:29;;;;;;;;;;;27.20;92.40;;;;;;5047837;28;19936;-93
2022/09/04 13:18:02;;;;;;;;;;;27.20;92.60;;;;;;5035068;28;19925;-94
2022/09/04 13:20:39;;;;;;;;;;;27.20;92.40;;;;;;5034950;28;20151;-94
2022/09/04 13:23:11;;;;;;;;;;;27.20;92.30;;;;;;5035653;28;19971;-92
2022/09/04 13:25:52;;;;;;;;;;;27.20;92.20;;;;;;5035113;28;19964;-92
2022/09/04 13:28:23;;;;;;;;;;;27.10;92.50;;;;;;5031914;28;20001;-92
2022/09/04 13:31:14;;;;;;;;;;;27.10;92.60;;;;;;5048197;28;19928;-94
2022/09/04 13:33:59;;;;;;;;;;;27.40;92.50;;;;;;5019506;28;20043;-93
2022/09/04 13:36:44;;;;;;;;;;;27.30;92.60;;;;;;5039777;28;20377;-93
2022/09/04 13:39:34;;;;;;;;;;;27.30;92.20;;;;;;5020533;28;19929;-93
2022/09/04 13:42:20;;;;;;;;;;;27.10;92.40;;;;;;4990735;28;19932;-92
2022/09/04 13:44:58;;;;;;;;;;;27.30;92.60;;;;;;5033921;28;19932;-92
2022/09/04 13:47:24;;;;;;;;;;;27.60;92.40;;;;;;5034393;28;19932;-91
2022/09/04 13:49:58;;;;;;;;;;;27.60;92.40;;;;;;5051869;28;19929;-95
2022/09/04 13:52:26;;;;;;;;;;;27.50;92.30;;;;;;5035723;28;19932;-94
2022/09/04 13:54:53;;;;;;;;;;;27.60;92.30;;;;;;5034239;28;19925;-92
2022/09/04 13:57:20;;;;;;;;;;;27.50;92.50;;;;;;5026738;28;19987;-93
2022/09/04 13:59:48;;;;;;;;;;;27.30;92.60;;;;;;5034341;28;20391;-93
2022/09/04 14:02:15;;;;;;;;;;;27.20;92.60;;;;;;5051285;28;19932;-92
2022/09/04 14:04:42;;;;;;;;;;;27.10;92.90;;;;;;5037058;28;19931;-93
2022/09/04 14:07:17;;;;;;;;;;;27.30;92.90;;;;;;5044327;28;19932;-92
2022/09/04 14:09:44;;;;;;;;;;;27.30;93.00;;;;;;5019450;28;20400;-94
2022/09/04 14:12:09;;;;;;;;;;;27.40;92.60;;;;;;5045792;28;20027;-92
2022/09/04 14:14:58;;;;;;;;;;;27.40;92.40;;;;;;5017483;28;20439;-92
2022/09/04 14:17:27;;;;;;;;;;;27.40;92.50;;;;;;5033859;28;19925;-94
2022/09/04 14:20:01;;;;;;;;;;;27.50;92.50;;;;;;5033840;28;19925;-91
2022/09/04 14:22:37;;;;;;;;;;;27.40;92.70;;;;;;5017682;28;19932;-92
2022/09/04 14:25:03;;;;;;;;;;;27.50;92.60;;;;;;5035445;28;19925;-93
2022/09/04 14:27:34;;;;;;;;;;;27.50;92.40;;;;;;5045235;28;19978;-92
2022/09/04 14:30:07;;;;;;;;;;;27.60;92.50;;;;;;5035452;28;19925;-92
2022/09/04 14:32:40;;;;;;;;;;;27.60;92.40;;;;;;5032957;28;20286;-90
2022/09/04 14:35:09;;;;;;;;;;;27.50;92.60;;;;;;5033816;28;19932;-95
2022/09/04 14:37:50;;;;;;;;;;;27.40;92.70;;;;;;5033242;28;19925;-91
2022/09/04 14:40:23;;;;;;;;;;;27.50;92.60;;;;;;5037335;28;19925;-94
2022/09/04 14:42:58;;;;;;;;;;;27.80;92.30;;;;;;5031224;28;19929;-92
2022/09/04 14:45:59;;;;;;;;;;;27.80;92.60;;;;;;5050018;28;19933;-92
2022/09/04 14:48:27;;;;;;;;;;;27.50;92.60;;;;;;4991871;28;20426;-92
2022/09/04 14:50:55;;;;;;;;;;;27.40;92.70;;;;;;5034278;28;19925;-93
2022/09/04 14:53:22;;;;;;;;;;;27.30;92.70;;;;;;5033043;28;19933;-93
2022/09/04 14:56:04;;;;;;;;;;;27.60;92.80;;;;;;5017363;28;19932;-94
2022/09/04 14:58:32;;;;;;;;;;;27.80;92.40;;;;;;5034060;28;20015;-93
2022/09/04 15:01:05;;;;;;;;;;;27.60;92.30;;;;;;5033828;28;20404;-92
2022/09/04 15:03:34;;;;;;;;;;;27.60;92.20;;;;;;5024520;28;20327;-92
2022/09/04 15:06:04;;;;;;;;;;;27.50;92.10;;;;;;5053495;28;20024;-92
2022/09/04 15:08:33;;;;;;;;;;;27.50;92.30;;;;;;5060240;28;20368;-91